Time;durP1;ratioP1;P1;durP2;ratioP2;P2;SDS_P1;SDS_P2;PMS_P1;PMS_P2;Temp;Humidity;BMP_temperature;BMP_pressure;BME280_temperature;BME280_humidity;BME280_pressure;Samples;Min_cycle;Max_cycle;Signal;HPM_P1;HPM_P2
2021/01/28 00:02:22;;;;;;;11.47;9.23;;;3.50;99.90;;;;;;4962279;29;20439;-49
2021/01/28 00:04:48;;;;;;;10.33;8.33;;;3.50;99.90;;;;;;4963267;29;20453;-52
2021/01/28 00:07:15;;;;;;;12.27;9.17;;;3.50;99.90;;;;;;4964473;29;20950;-49
2021/01/28 00:09:42;;;;;;;11.17;7.10;;;3.40;99.90;;;;;;4972179;29;20478;-51
2021/01/28 00:15:32;;;;;;;13.90;9.97;;;3.40;99.90;;;;;;4977471;28;20455;-49
2021/01/28 00:17:59;;;;;;;12.57;8.37;;;3.40;99.90;;;;;;4979861;29;20468;-53
2021/01/28 00:20:27;;;;;;;13.23;8.13;;;3.40;99.90;;;;;;4977744;29;20443;-51
2021/01/28 00:22:54;;;;;;;11.10;9.23;;;3.40;99.90;;;;;;4979247;28;20425;-50
2021/01/28 00:25:23;;;;;;;11.83;8.80;;;3.40;99.90;;;;;;4995922;28;20447;-49
2021/01/28 00:27:50;;;;;;;13.07;10.13;;;3.40;99.90;;;;;;4990115;28;20452;-47
2021/01/28 00:30:20;;;;;;;12.37;9.00;;;3.40;99.90;;;;;;4979243;29;20436;-50
2021/01/28 00:32:47;;;;;;;13.00;10.00;;;3.30;99.90;;;;;;4968724;29;20459;-46
2021/01/28 00:35:16;;;;;;;17.50;11.00;;;3.30;99.90;;;;;;4979211;29;20440;-49
2021/01/28 00:37:42;;;;;;;16.73;10.50;;;3.30;99.90;;;;;;4979377;29;20459;-46
2021/01/28 00:40:09;;;;;;;14.73;10.27;;;3.20;99.90;;;;;;4979737;29;20427;-49
2021/01/28 00:42:36;;;;;;;16.07;10.57;;;3.30;99.90;;;;;;4980039;29;20442;-49
2021/01/28 00:45:03;;;;;;;14.63;9.43;;;3.20;99.90;;;;;;4982539;28;20442;-52
2021/01/28 00:47:30;;;;;;;18.50;9.67;;;3.30;99.90;;;;;;4978025;28;20779;-51
2021/01/28 00:49:56;;;;;;;19.37;12.43;;;3.30;99.90;;;;;;4973073;29;20484;-49
2021/01/28 00:52:22;;;;;;;16.53;10.47;;;3.30;99.90;;;;;;4973409;29;20516;-48
2021/01/28 00:54:48;;;;;;;14.10;9.60;;;3.30;99.90;;;;;;4972500;29;20470;-49
2021/01/28 00:57:15;;;;;;;15.43;11.43;;;3.30;99.90;;;;;;4971320;29;20463;-49
2021/01/28 00:59:42;;;;;;;15.10;10.10;;;3.40;99.90;;;;;;4971009;29;20452;-48
2021/01/28 01:02:08;;;;;;;19.00;11.27;;;3.40;99.90;;;;;;4971918;29;20791;-52
2021/01/28 01:04:34;;;;;;;18.40;11.70;;;3.40;99.90;;;;;;4973058;29;20790;-48
2021/01/28 01:07:00;;;;;;;17.20;11.70;;;3.50;99.90;;;;;;4973270;29;20443;-49
2021/01/28 01:09:28;;;;;;;18.13;10.87;;;3.50;99.90;;;;;;4972840;29;20446;-53
2021/01/28 01:11:54;;;;;;;19.57;12.03;;;3.40;99.90;;;;;;4973508;29;20540;-49
2021/01/28 01:14:20;;;;;;;15.20;11.13;;;3.40;99.90;;;;;;4973848;29;20451;-49
2021/01/28 01:16:48;;;;;;;15.33;10.50;;;3.40;99.90;;;;;;4973379;29;20458;-50
2021/01/28 01:19:15;;;;;;;15.57;11.40;;;3.40;99.90;;;;;;4971654;29;20487;-53
2021/01/28 01:21:41;;;;;;;18.13;11.30;;;3.40;99.90;;;;;;4937634;29;20452;-51
2021/01/28 01:24:08;;;;;;;14.33;10.23;;;3.40;99.90;;;;;;4943886;29;20468;-53
2021/01/28 01:26:34;;;;;;;13.60;9.70;;;3.40;99.90;;;;;;4945656;29;20481;-46
2021/01/28 01:29:00;;;;;;;17.03;10.67;;;3.40;99.90;;;;;;4962372;29;20460;-45
2021/01/28 01:31:27;;;;;;;17.53;11.50;;;3.50;99.90;;;;;;4965010;29;20942;-46
2021/01/28 01:33:54;;;;;;;20.07;11.87;;;3.50;99.90;;;;;;4965087;29;20478;-47
2021/01/28 01:36:20;;;;;;;18.23;11.30;;;3.50;99.90;;;;;;4964578;29;20456;-47
2021/01/28 01:38:46;;;;;;;17.80;11.70;;;3.50;99.90;;;;;;4964497;29;20562;-46
2021/01/28 01:41:13;;;;;;;15.77;10.50;;;3.50;99.90;;;;;;4964529;29;20462;-45
2021/01/28 01:43:39;;;;;;;15.40;10.73;;;3.40;99.90;;;;;;4963865;29;20466;-50
2021/01/28 01:46:08;;;;;;;18.30;12.50;;;3.50;99.90;;;;;;4963367;29;20935;-51
2021/01/28 01:48:38;;;;;;;17.70;11.03;;;3.50;99.90;;;;;;4963719;29;20460;-51
2021/01/28 01:51:14;;;;;;;18.00;10.23;;;3.50;99.90;;;;;;4963574;29;20592;-47
2021/01/28 01:53:44;;;;;;;16.90;11.13;;;3.50;99.90;;;;;;4963117;29;20874;-49
2021/01/28 01:56:15;;;;;;;15.87;11.47;;;3.50;99.90;;;;;;4962846;29;20488;-48
2021/01/28 01:58:50;;;;;;;17.00;11.00;;;3.50;99.90;;;;;;4963808;29;20484;-44
2021/01/28 02:01:16;;;;;;;17.60;10.37;;;3.50;99.90;;;;;;4964562;29;20436;-46
2021/01/28 02:03:44;;;;;;;16.57;10.73;;;3.60;99.90;;;;;;4963680;29;20448;-46
2021/01/28 02:06:19;;;;;;;18.10;10.57;;;3.50;99.90;;;;;;4963688;29;20451;-45
2021/01/28 02:08:48;;;;;;;15.00;10.10;;;3.60;99.90;;;;;;4964184;29;20428;-47
2021/01/28 02:11:14;;;;;;;16.67;10.17;;;3.60;99.90;;;;;;4963850;29;20451;-45
2021/01/28 02:13:45;;;;;;;18.60;11.07;;;3.60;99.90;;;;;;4963289;29;20451;-46
2021/01/28 02:16:13;;;;;;;18.73;12.40;;;3.60;99.90;;;;;;4971893;28;20447;-50
2021/01/28 02:18:42;;;;;;;20.50;11.83;;;3.70;99.90;;;;;;4981771;28;20854;-47
2021/01/28 02:21:21;;;;;;;17.47;10.93;;;3.70;99.90;;;;;;4982259;28;20520;-46
2021/01/28 02:24:02;;;;;;;17.57;10.80;;;3.70;99.90;;;;;;4982347;28;20446;-49
2021/01/28 02:26:31;;;;;;;19.03;10.23;;;3.70;99.90;;;;;;4982623;28;20791;-49
2021/01/28 02:28:58;;;;;;;18.20;12.23;;;3.80;99.90;;;;;;4982926;28;20458;-49
2021/01/28 02:31:25;;;;;;;17.30;10.70;;;3.80;99.90;;;;;;4982764;28;20447;-45
2021/01/28 02:33:53;;;;;;;22.03;12.17;;;3.80;99.90;;;;;;4981178;28;20451;-48
2021/01/28 02:36:20;;;;;;;15.57;10.20;;;3.80;99.90;;;;;;4981627;28;20493;-50
2021/01/28 02:38:46;;;;;;;20.47;11.40;;;3.80;99.90;;;;;;4980528;28;20973;-46
2021/01/28 02:41:13;;;;;;;16.40;11.70;;;3.90;99.90;;;;;;4982038;28;20442;-45
2021/01/28 02:43:40;;;;;;;16.80;11.73;;;3.90;99.90;;;;;;4981912;28;20450;-45
2021/01/28 02:46:10;;;;;;;20.83;11.57;;;3.90;99.90;;;;;;4989190;28;20982;-47
2021/01/28 02:48:36;;;;;;;19.67;13.00;;;4.00;99.90;;;;;;4989109;28;20447;-44
2021/01/28 02:51:03;;;;;;;19.00;11.10;;;4.00;99.90;;;;;;4988863;28;20538;-44
2021/01/28 02:53:36;;;;;;;15.30;10.40;;;4.00;99.90;;;;;;4989119;28;20466;-45
2021/01/28 02:56:03;;;;;;;16.13;11.43;;;4.00;99.90;;;;;;4983440;28;20439;-48
2021/01/28 02:58:29;;;;;;;16.67;11.23;;;4.00;99.90;;;;;;4981943;28;20478;-47
2021/01/28 03:00:56;;;;;;;18.07;9.87;;;3.90;99.90;;;;;;4981889;28;20480;-46
2021/01/28 03:03:25;;;;;;;19.00;11.43;;;3.90;99.90;;;;;;4981679;28;20457;-46
2021/01/28 03:05:52;;;;;;;17.90;9.90;;;4.00;99.90;;;;;;4982126;28;20463;-48
2021/01/28 03:08:19;;;;;;;16.77;10.63;;;4.00;99.90;;;;;;4981042;28;20446;-50
2021/01/28 03:10:46;;;;;;;15.33;9.77;;;4.00;99.90;;;;;;4951693;28;20464;-47
2021/01/28 03:13:13;;;;;;;17.77;10.73;;;4.10;99.90;;;;;;4942304;29;20966;-48
2021/01/28 03:15:40;;;;;;;14.40;10.10;;;4.10;99.90;;;;;;4942585;29;20834;-46
2021/01/28 03:18:07;;;;;;;19.10;10.60;;;4.10;99.90;;;;;;4942545;29;20499;-47
2021/01/28 03:20:34;;;;;;;17.73;9.60;;;4.10;99.90;;;;;;4946426;29;20461;-46
2021/01/28 03:23:01;;;;;;;16.03;9.70;;;4.10;99.90;;;;;;4950370;29;20843;-49
2021/01/28 03:25:28;;;;;;;18.27;9.83;;;4.10;99.90;;;;;;4949061;29;20527;-47
2021/01/28 03:27:55;;;;;;;15.27;8.80;;;4.10;99.90;;;;;;4949306;29;20456;-46
2021/01/28 03:30:24;;;;;;;13.00;9.60;;;4.20;99.90;;;;;;4948423;29;20472;-48
2021/01/28 03:32:51;;;;;;;16.57;9.50;;;4.20;99.90;;;;;;4948923;29;20448;-48
2021/01/28 03:35:21;;;;;;;16.67;10.93;;;4.20;99.90;;;;;;4949330;29;20511;-51
2021/01/28 03:37:47;;;;;;;12.43;9.00;;;4.20;99.90;;;;;;4949147;29;20540;-47
2021/01/28 03:40:15;;;;;;;14.30;9.43;;;4.20;99.90;;;;;;4948746;29;20449;-47
2021/01/28 03:42:41;;;;;;;15.10;9.83;;;4.20;99.90;;;;;;4943757;29;20452;-47
2021/01/28 03:45:09;;;;;;;14.73;9.30;;;4.20;99.90;;;;;;4941697;29;20800;-48
2021/01/28 03:47:36;;;;;;;17.10;11.23;;;4.20;99.90;;;;;;4942056;29;20452;-44
2021/01/28 03:50:03;;;;;;;17.40;10.57;;;4.20;99.90;;;;;;4939536;29;20998;-47
2021/01/28 03:52:31;;;;;;;15.17;10.40;;;4.20;99.90;;;;;;4940492;29;20463;-49
2021/01/28 03:54:57;;;;;;;16.73;9.53;;;4.20;99.90;;;;;;4941365;29;20445;-51
2021/01/28 03:57:23;;;;;;;18.20;10.33;;;4.30;99.90;;;;;;4941395;29;20878;-49
2021/01/28 03:59:49;;;;;;;16.27;10.20;;;4.20;99.90;;;;;;4940858;29;20495;-48
2021/01/28 04:02:16;;;;;;;16.30;10.90;;;4.20;99.90;;;;;;4941310;29;20449;-50
2021/01/28 04:04:42;;;;;;;18.53;11.13;;;4.20;99.90;;;;;;4941736;29;20444;-45
2021/01/28 04:07:08;;;;;;;19.70;13.20;;;4.30;99.90;;;;;;4941604;29;20453;-47
2021/01/28 04:09:35;;;;;;;17.07;10.20;;;4.30;99.90;;;;;;4941741;29;20457;-45
2021/01/28 04:12:05;;;;;;;20.40;12.10;;;4.30;99.90;;;;;;4941385;29;20460;-46
2021/01/28 04:14:32;;;;;;;16.80;10.40;;;4.30;99.90;;;;;;4942071;29;20444;-44
2021/01/28 04:16:58;;;;;;;17.23;10.37;;;4.30;99.90;;;;;;4942344;29;20816;-46
2021/01/28 04:19:24;;;;;;;17.13;11.00;;;4.30;99.90;;;;;;4941920;29;20562;-45
2021/01/28 04:21:50;;;;;;;17.90;11.27;;;4.30;99.90;;;;;;4941790;29;20460;-45
2021/01/28 04:24:17;;;;;;;14.97;9.77;;;4.30;99.90;;;;;;4941854;29;20452;-44
2021/01/28 04:26:44;;;;;;;15.53;9.90;;;4.30;99.90;;;;;;4941710;29;20461;-45
2021/01/28 04:29:11;;;;;;;19.83;12.23;;;4.40;99.90;;;;;;4941738;29;20869;-45
2021/01/28 04:31:37;;;;;;;17.00;10.47;;;4.30;99.90;;;;;;4948747;29;20453;-45
2021/01/28 04:34:06;;;;;;;18.60;11.00;;;4.30;99.90;;;;;;4948011;29;20448;-46
2021/01/28 04:36:32;;;;;;;17.50;11.13;;;4.30;99.90;;;;;;4946231;29;20599;-48
2021/01/28 04:38:58;;;;;;;19.33;11.27;;;4.40;99.90;;;;;;4946722;29;20484;-48
2021/01/28 04:41:27;;;;;;;15.87;8.90;;;4.40;99.90;;;;;;4942007;29;20453;-47
2021/01/28 04:43:56;;;;;;;17.27;10.97;;;4.40;99.90;;;;;;4940951;29;20460;-46
2021/01/28 04:46:26;;;;;;;18.53;11.43;;;4.40;99.90;;;;;;4944480;29;20453;-50
2021/01/28 04:48:53;;;;;;;16.27;11.23;;;4.40;99.90;;;;;;4940078;29;20515;-49
2021/01/28 04:51:22;;;;;;;15.80;10.97;;;4.40;99.90;;;;;;4939960;29;20799;-46
2021/01/28 04:53:52;;;;;;;14.97;10.10;;;4.40;99.90;;;;;;4940850;29;20457;-47
2021/01/28 04:56:23;;;;;;;25.43;12.20;;;4.50;99.90;;;;;;4939259;29;20912;-48
2021/01/28 04:58:52;;;;;;;17.63;10.33;;;4.50;99.90;;;;;;4944054;29;20499;-46
2021/01/28 05:01:20;;;;;;;19.33;11.47;;;4.50;99.90;;;;;;4944749;29;20504;-48
2021/01/28 05:03:50;;;;;;;17.57;10.47;;;4.50;99.90;;;;;;4945571;29;20797;-46
2021/01/28 05:06:17;;;;;;;17.50;10.73;;;4.50;99.90;;;;;;4946550;29;20463;-49
2021/01/28 05:08:44;;;;;;;18.53;11.60;;;4.50;99.90;;;;;;4945071;29;20764;-48
2021/01/28 05:11:24;;;;;;;16.03;10.27;;;4.50;99.90;;;;;;4947816;29;20449;-44
2021/01/28 05:13:51;;;;;;;18.43;10.80;;;4.60;99.90;;;;;;4947456;29;20852;-46
2021/01/28 05:16:25;;;;;;;17.63;10.40;;;4.60;99.90;;;;;;4957806;29;20538;-46
2021/01/28 05:19:00;;;;;;;15.80;9.60;;;4.60;99.90;;;;;;4965074;29;20989;-48
2021/01/28 05:21:28;;;;;;;18.27;10.63;;;4.60;99.90;;;;;;4966227;29;20946;-46
2021/01/28 05:24:03;;;;;;;16.80;9.50;;;4.60;99.90;;;;;;4966634;29;20447;-47
2021/01/28 05:26:38;;;;;;;19.43;11.03;;;4.60;99.90;;;;;;4965666;29;20448;-45
2021/01/28 05:29:21;;;;;;;13.87;9.77;;;4.60;99.90;;;;;;4953036;29;20468;-48
2021/01/28 05:31:50;;;;;;;16.37;10.13;;;4.70;99.90;;;;;;4946419;29;20496;-47
2021/01/28 05:34:22;;;;;;;16.57;11.40;;;4.70;99.90;;;;;;4949150;29;20479;-48
2021/01/28 05:36:57;;;;;;;16.67;10.53;;;4.70;99.90;;;;;;4945383;29;20448;-47
2021/01/28 05:39:27;;;;;;;17.03;11.60;;;4.70;99.90;;;;;;4944496;29;20484;-44
2021/01/28 05:42:06;;;;;;;22.37;13.43;;;4.80;99.90;;;;;;4946355;29;20464;-49
2021/01/28 05:44:37;;;;;;;17.90;12.70;;;4.90;99.90;;;;;;4944652;29;20456;-47
2021/01/28 05:47:07;;;;;;;17.40;9.73;;;4.90;99.90;;;;;;4948926;29;20472;-48
2021/01/28 05:49:35;;;;;;;18.30;11.87;;;4.80;99.90;;;;;;4943745;29;20480;-50
2021/01/28 05:52:14;;;;;;;21.80;11.77;;;4.80;99.90;;;;;;4944382;29;20923;-49
2021/01/28 05:54:41;;;;;;;17.73;10.90;;;4.80;99.90;;;;;;4943903;29;20480;-45
2021/01/28 05:57:10;;;;;;;16.20;11.40;;;4.90;99.90;;;;;;4940751;29;20456;-49
2021/01/28 05:59:46;;;;;;;17.07;10.83;;;4.90;99.90;;;;;;4942034;29;20489;-48
2021/01/28 06:02:52;;;;;;;21.77;11.80;;;4.90;99.90;;;;;;4946562;29;20428;-49
2021/01/28 06:05:29;;;;;;;18.57;11.27;;;4.90;99.90;;;;;;4918129;29;20449;-52
2021/01/28 06:08:14;;;;;;;17.70;11.53;;;4.90;99.90;;;;;;4944223;29;20939;-44
2021/01/28 06:11:02;;;;;;;16.87;11.57;;;5.00;99.90;;;;;;4936896;29;20984;-50
2021/01/28 06:14:04;;;;;;;19.60;13.40;;;5.00;99.90;;;;;;4941670;29;20460;-50
2021/01/28 06:16:36;;;;;;;19.40;10.00;;;5.00;99.90;;;;;;4942829;29;20487;-50
2021/01/28 06:19:39;;;;;;;22.10;12.70;;;5.00;99.90;;;;;;4942861;29;20472;-45
2021/01/28 06:22:13;;;;;;;21.40;11.40;;;5.00;99.90;;;;;;4939418;29;20452;-50
2021/01/28 06:24:53;;;;;;;14.80;10.40;;;5.00;99.90;;;;;;4941787;29;20479;-51
2021/01/28 06:27:50;;;;;;;15.67;11.10;;;5.00;99.90;;;;;;4942963;29;20791;-45
2021/01/28 06:30:29;;;;;;;23.10;12.53;;;5.00;99.90;;;;;;4942996;29;20428;-50
2021/01/28 06:33:24;;;;;;;21.87;12.03;;;5.00;99.90;;;;;;4942766;29;21040;-49
2021/01/28 06:36:20;;;;;;;20.90;12.77;;;5.00;99.90;;;;;;4944638;29;20433;-45
2021/01/28 06:39:18;;;;;;;21.70;13.33;;;5.00;99.90;;;;;;4926775;29;20500;-46
2021/01/28 06:41:51;;;;;;;20.50;11.43;;;5.00;99.90;;;;;;4942404;29;20460;-48
2021/01/28 06:44:22;;;;;;;18.37;10.30;;;5.00;99.90;;;;;;4943199;29;21008;-46
2021/01/28 06:46:51;;;;;;;22.83;11.53;;;5.00;99.90;;;;;;4943206;29;20456;-49
2021/01/28 06:49:27;;;;;;;19.30;12.77;;;5.00;99.90;;;;;;4942352;29;20480;-50
2021/01/28 06:52:13;;;;;;;17.70;11.03;;;5.00;99.90;;;;;;4954022;29;20459;-51
2021/01/28 06:54:46;;;;;;;20.83;12.70;;;5.00;99.90;;;;;;4961479;29;20460;-48
2021/01/28 06:57:21;;;;;;;23.97;12.07;;;5.00;99.90;;;;;;4961601;29;20451;-45
2021/01/28 07:00:07;;;;;;;22.87;12.93;;;5.00;99.90;;;;;;4960559;29;20565;-45
2021/01/28 07:02:59;;;;;;;23.50;13.67;;;5.10;99.90;;;;;;4942867;29;20452;-45
2021/01/28 07:05:48;;;;;;;20.47;11.77;;;5.00;99.90;;;;;;4943168;29;20492;-47
2021/01/28 07:08:34;;;;;;;19.30;10.97;;;5.00;99.90;;;;;;4950310;29;20456;-45
2021/01/28 07:11:00;;;;;;;20.23;11.80;;;5.00;99.90;;;;;;4946365;29;20463;-46
2021/01/28 07:13:32;;;;;;;25.60;11.67;;;5.00;99.90;;;;;;4943222;29;20449;-45
2021/01/28 07:16:03;;;;;;;21.40;10.00;;;4.90;99.90;;;;;;4942540;29;20804;-45
2021/01/28 07:18:37;;;;;;;17.80;9.77;;;4.90;99.90;;;;;;4943214;29;20469;-46
2021/01/28 07:21:05;;;;;;;14.10;7.13;;;4.90;99.90;;;;;;4946183;29;20496;-45
2021/01/28 07:23:35;;;;;;;7.70;4.40;;;4.90;99.90;;;;;;4946248;29;20453;-46
2021/01/28 07:26:10;;;;;;;10.97;5.07;;;4.90;99.90;;;;;;4945943;29;20463;-45
2021/01/28 07:28:38;;;;;;;5.27;3.03;;;4.90;99.90;;;;;;4945949;29;20967;-45
2021/01/28 07:31:24;;;;;;;6.37;3.70;;;4.80;99.90;;;;;;4947162;29;20463;-46
2021/01/28 07:34:06;;;;;;;8.17;3.63;;;4.80;99.90;;;;;;4962927;28;20455;-48
2021/01/28 07:36:38;;;;;;;7.17;3.90;;;4.70;99.90;;;;;;4966868;28;20463;-49
2021/01/28 07:39:26;;;;;;;6.70;3.20;;;4.70;99.90;;;;;;4967915;28;20473;-48
2021/01/28 07:41:55;;;;;;;5.90;3.37;;;4.70;99.90;;;;;;4975596;28;20452;-50
2021/01/28 07:44:50;;;;;;;5.77;3.83;;;4.70;99.90;;;;;;4970308;29;20464;-49
2021/01/28 07:47:49;;;;;;;5.77;3.03;;;4.70;99.90;;;;;;4965307;29;20432;-47
2021/01/28 07:50:34;;;;;;;7.23;4.10;;;4.70;99.90;;;;;;4959175;29;20507;-48
2021/01/28 07:53:29;;;;;;;6.37;3.30;;;4.80;99.90;;;;;;4961615;29;20950;-46
2021/01/28 07:55:56;;;;;;;9.90;5.60;;;4.80;99.90;;;;;;4961432;29;20459;-46
2021/01/28 07:58:27;;;;;;;7.87;4.47;;;4.80;99.90;;;;;;4949057;29;20492;-46
2021/01/28 08:00:53;;;;;;;8.93;4.87;;;4.90;99.90;;;;;;4964436;29;20452;-47
2021/01/28 08:03:34;;;;;;;12.57;5.67;;;4.90;99.90;;;;;;4966413;29;20467;-47
2021/01/28 08:06:05;;;;;;;9.17;4.93;;;5.00;99.90;;;;;;4962776;29;20482;-46
2021/01/28 08:08:32;;;;;;;10.23;7.70;;;5.00;99.90;;;;;;5006395;23;20475;-51
2021/01/28 08:11:17;;;;;;;13.03;8.40;;;5.10;99.90;;;;;;5088235;23;20524;-52
2021/01/28 08:13:53;;;;;;;14.80;9.47;;;5.10;99.90;;;;;;4971846;29;20432;-53
2021/01/28 08:16:20;;;;;;;15.13;8.10;;;5.10;99.90;;;;;;4980806;28;20520;-52
2021/01/28 08:19:01;;;;;;;14.83;8.27;;;5.10;99.90;;;;;;4990422;28;20442;-55
2021/01/28 08:21:29;;;;;;;11.77;7.27;;;5.10;99.90;;;;;;4981055;28;20439;-52
2021/01/28 08:24:08;;;;;;;10.40;6.47;;;5.20;99.90;;;;;;4978860;28;20447;-51
2021/01/28 08:26:39;;;;;;;14.27;8.20;;;5.20;99.90;;;;;;4960204;28;20470;-53
2021/01/28 08:29:08;;;;;;;13.10;7.40;;;5.20;99.90;;;;;;4964048;28;20471;-53
2021/01/28 08:31:38;;;;;;;11.33;7.17;;;5.30;99.90;;;;;;4964960;29;20447;-56
2021/01/28 08:34:07;;;;;;;11.93;7.83;;;5.30;99.90;;;;;;4963441;28;20456;-50
2021/01/28 08:36:43;;;;;;;14.43;7.53;;;5.30;99.90;;;;;;4977792;28;20533;-52
2021/01/28 08:39:12;;;;;;;15.43;8.17;;;5.30;99.90;;;;;;4974952;28;20459;-44
2021/01/28 08:41:40;;;;;;;12.30;7.53;;;5.40;99.90;;;;;;4967205;28;20448;-45
2021/01/28 08:44:10;;;;;;;12.27;7.17;;;5.50;99.90;;;;;;4958353;28;20448;-46
2021/01/28 08:46:38;;;;;;;16.67;8.53;;;5.60;99.90;;;;;;4939934;29;20954;-48
2021/01/28 08:49:08;;;;;;;11.13;7.53;;;5.70;99.90;;;;;;4963055;28;20818;-51
2021/01/28 08:51:38;;;;;;;8.83;5.93;;;5.70;99.90;;;;;;4966906;28;20861;-45
2021/01/28 08:54:08;;;;;;;10.30;6.43;;;5.80;99.90;;;;;;4977093;28;20447;-47
2021/01/28 08:56:39;;;;;;;8.40;5.87;;;5.80;99.90;;;;;;4956213;28;20464;-44
2021/01/28 08:59:10;;;;;;;10.67;6.00;;;5.80;99.90;;;;;;4977058;28;20906;-45
2021/01/28 09:01:42;;;;;;;8.50;5.17;;;5.80;99.90;;;;;;4959245;28;20448;-44
2021/01/28 09:04:14;;;;;;;9.50;4.90;;;5.80;99.90;;;;;;4937981;29;20978;-45
2021/01/28 09:06:43;;;;;;;8.40;5.30;;;5.70;99.90;;;;;;4941710;29;20928;-45
2021/01/28 09:09:18;;;;;;;10.57;5.33;;;5.60;99.90;;;;;;4943011;29;20492;-47
2021/01/28 09:11:45;;;;;;;7.77;4.73;;;5.50;99.90;;;;;;4941968;29;20494;-47
2021/01/28 09:14:28;;;;;;;8.03;5.20;;;5.50;99.90;;;;;;4945392;29;20462;-45
2021/01/28 09:16:56;;;;;;;8.53;5.83;;;5.50;99.90;;;;;;4949978;29;20778;-47
2021/01/28 09:19:23;;;;;;;10.37;6.07;;;5.40;99.90;;;;;;4949715;29;20445;-44
2021/01/28 09:21:56;;;;;;;10.50;5.60;;;5.20;99.90;;;;;;4943574;29;20588;-47
2021/01/28 09:24:30;;;;;;;12.43;6.13;;;5.20;99.90;;;;;;4947587;29;20784;-49
2021/01/28 09:27:16;;;;;;;7.63;4.80;;;5.20;99.90;;;;;;4942764;29;20923;-47
2021/01/28 09:29:47;;;;;;;8.83;5.73;;;5.10;99.90;;;;;;4971680;29;20495;-52
2021/01/28 09:32:27;;;;;;;9.40;5.13;;;5.20;99.90;;;;;;4967026;29;20447;-54
2021/01/28 09:35:13;;;;;;;9.67;5.97;;;5.20;99.90;;;;;;4953466;29;20481;-53
2021/01/28 09:37:41;;;;;;;10.80;6.17;;;5.20;99.90;;;;;;4958499;29;20522;-54
2021/01/28 09:40:19;;;;;;;11.30;6.07;;;5.20;99.90;;;;;;4958354;29;20502;-51
2021/01/28 09:42:49;;;;;;;9.53;6.30;;;5.30;99.90;;;;;;4956835;29;20740;-54
2021/01/28 09:45:23;;;;;;;10.50;5.90;;;5.30;99.90;;;;;;4956233;29;20443;-54
2021/01/28 09:47:51;;;;;;;9.70;5.97;;;5.30;99.90;;;;;;4960507;28;20462;-55
2021/01/28 09:50:17;;;;;;;9.37;6.37;;;5.30;99.90;;;;;;4961817;29;20479;-52
2021/01/28 09:52:47;;;;;;;13.10;5.77;;;5.40;99.90;;;;;;4962440;29;20592;-57
2021/01/28 09:55:15;;;;;;;11.87;5.70;;;5.40;99.90;;;;;;4965859;29;20873;-54
2021/01/28 09:57:42;;;;;;;11.10;5.80;;;5.40;99.90;;;;;;4961845;29;20798;-56
2021/01/28 10:00:13;;;;;;;10.40;6.00;;;5.50;99.90;;;;;;4963617;29;20466;-56
2021/01/28 10:02:44;;;;;;;9.97;5.53;;;5.40;99.90;;;;;;4967755;29;20580;-54
2021/01/28 10:05:14;;;;;;;10.70;6.27;;;5.40;99.90;;;;;;4963623;29;20444;-53
2021/01/28 10:07:40;;;;;;;8.90;4.87;;;5.30;99.90;;;;;;4966087;29;20435;-51
2021/01/28 10:10:08;;;;;;;13.70;6.50;;;5.30;99.90;;;;;;4972276;29;20518;-50
2021/01/28 10:12:35;;;;;;;9.97;5.73;;;5.30;99.90;;;;;;4980054;29;20451;-49
2021/01/28 10:15:02;;;;;;;10.57;6.87;;;5.30;99.90;;;;;;4980071;29;20444;-53
2021/01/28 10:17:29;;;;;;;16.10;6.17;;;5.30;99.90;;;;;;4977233;29;20467;-51
2021/01/28 10:19:56;;;;;;;9.87;6.10;;;5.20;99.90;;;;;;4979488;29;20507;-56
2021/01/28 10:22:23;;;;;;;13.23;7.50;;;5.20;99.90;;;;;;4978940;29;20447;-55
2021/01/28 10:24:50;;;;;;;12.47;7.53;;;5.30;99.90;;;;;;4979710;28;20436;-54
2021/01/28 10:27:17;;;;;;;9.20;6.27;;;5.30;99.90;;;;;;4981112;28;20456;-53
2021/01/28 10:29:45;;;;;;;12.73;7.10;;;5.40;99.90;;;;;;4980119;28;21015;-54
2021/01/28 10:32:13;;;;;;;9.30;6.30;;;5.50;99.90;;;;;;4976509;29;20756;-53
2021/01/28 10:34:41;;;;;;;8.60;6.37;;;5.50;99.90;;;;;;4976409;29;20446;-54
2021/01/28 10:37:08;;;;;;;12.77;5.90;;;5.50;99.90;;;;;;4967097;29;20460;-55
2021/01/28 10:39:35;;;;;;;9.20;5.90;;;5.40;99.90;;;;;;4971198;29;20467;-55
2021/01/28 10:42:31;;;;;;;9.13;5.87;;;5.40;99.90;;;;;;4979236;29;20436;-54
2021/01/28 10:45:13;;;;;;;14.77;7.30;;;5.50;99.90;;;;;;4968926;29;20424;-53
2021/01/28 10:47:51;;;;;;;13.47;6.67;;;5.60;99.90;;;;;;4974442;29;20451;-49
2021/01/28 10:50:37;;;;;;;11.73;7.13;;;5.60;99.90;;;;;;5009972;23;20495;-52
2021/01/28 10:53:21;;;;;;;10.40;6.90;;;5.60;99.90;;;;;;4971335;28;20446;-52
2021/01/28 10:55:47;;;;;;;13.47;6.40;;;5.70;99.90;;;;;;5594056;23;20488;-53
2021/01/28 10:58:14;;;;;;;11.50;7.23;;;5.60;99.90;;;;;;4963160;28;20447;-54
2021/01/28 11:00:40;;;;;;;11.70;6.23;;;5.60;99.90;;;;;;4971995;29;20467;-55
2021/01/28 11:03:07;;;;;;;9.60;6.03;;;5.70;99.90;;;;;;4961004;28;20830;-51
2021/01/28 11:05:38;;;;;;;13.80;7.70;;;5.70;99.90;;;;;;4969935;29;20531;-54
2021/01/28 11:08:06;;;;;;;10.80;6.20;;;5.70;99.90;;;;;;4987883;28;20495;-53
2021/01/28 11:10:34;;;;;;;9.93;6.53;;;5.70;99.90;;;;;;4976546;29;20436;-56
2021/01/28 11:13:20;;;;;;;12.87;7.60;;;5.70;99.90;;;;;;4979553;29;20459;-54
2021/01/28 11:16:17;;;;;;;17.00;7.20;;;5.70;99.90;;;;;;4978952;29;20440;-54
2021/01/28 11:18:44;;;;;;;13.00;5.43;;;5.70;99.90;;;;;;4978847;29;20447;-54
2021/01/28 11:21:12;;;;;;;11.00;6.97;;;6.00;99.90;;;;;;4977880;29;20516;-49
2021/01/28 11:23:52;;;;;;;13.23;7.67;;;6.00;99.90;;;;;;4986587;28;20432;-61
2021/01/28 11:26:19;;;;;;;12.23;6.70;;;5.90;99.90;;;;;;4975825;28;20499;-44
2021/01/28 11:28:45;;;;;;;12.13;6.70;;;5.90;99.90;;;;;;4976789;29;20482;-51
2021/01/28 11:31:12;;;;;;;13.23;6.13;;;5.90;99.90;;;;;;4966881;29;20499;-51
2021/01/28 11:33:38;;;;;;;8.30;6.17;;;5.90;99.90;;;;;;4971648;29;20452;-50
2021/01/28 11:36:05;;;;;;;11.80;5.93;;;5.90;99.90;;;;;;4969150;29;20475;-49
2021/01/28 11:38:34;;;;;;;11.30;6.37;;;5.90;99.90;;;;;;4969786;29;20470;-52
2021/01/28 11:41:02;;;;;;;14.97;6.70;;;5.80;99.90;;;;;;4968951;29;20456;-50
2021/01/28 11:43:29;;;;;;;10.33;5.70;;;5.80;99.90;;;;;;4973629;29;20510;-50
2021/01/28 11:45:56;;;;;;;11.70;6.07;;;5.80;99.90;;;;;;4977594;29;20463;-51
2021/01/28 11:48:22;;;;;;;8.67;4.93;;;5.70;99.90;;;;;;4977932;29;20438;-52
2021/01/28 11:50:49;;;;;;;10.00;5.70;;;5.70;99.90;;;;;;4977851;29;20450;-52
2021/01/28 11:53:15;;;;;;;14.37;6.10;;;5.80;99.90;;;;;;4977894;29;20458;-47
2021/01/28 11:55:42;;;;;;;10.17;5.97;;;5.70;99.90;;;;;;4972898;28;20472;-52
2021/01/28 11:58:08;;;;;;;14.10;6.53;;;5.70;99.90;;;;;;4969273;29;20447;-49
2021/01/28 12:00:35;;;;;;;9.40;6.37;;;5.70;99.90;;;;;;4969089;29;20456;-52
2021/01/28 12:03:03;;;;;;;10.03;6.37;;;5.70;99.90;;;;;;4968409;29;20507;-53
2021/01/28 12:05:31;;;;;;;6.43;4.80;;;5.70;99.90;;;;;;4967415;29;20459;-48
2021/01/28 12:07:58;;;;;;;14.30;6.03;;;5.80;99.90;;;;;;4968649;29;20466;-54
2021/01/28 12:10:27;;;;;;;10.67;6.17;;;5.80;99.90;;;;;;4967890;28;20505;-49
2021/01/28 12:12:55;;;;;;;10.40;5.97;;;5.80;99.90;;;;;;4967561;29;20475;-54
2021/01/28 12:15:22;;;;;;;12.73;6.40;;;5.80;99.90;;;;;;4968027;29;20484;-52
2021/01/28 12:18:01;;;;;;;9.90;5.60;;;5.80;99.90;;;;;;4971360;29;20464;-50
2021/01/28 12:20:30;;;;;;;11.10;6.10;;;5.90;99.90;;;;;;4978483;29;20459;-52
2021/01/28 12:22:57;;;;;;;8.00;4.80;;;5.90;99.90;;;;;;4965209;29;20459;-46
2021/01/28 12:25:23;;;;;;;10.40;4.77;;;5.90;99.90;;;;;;4972311;29;20440;-51
2021/01/28 12:27:50;;;;;;;8.50;5.27;;;5.90;99.90;;;;;;4956993;29;21105;-47
2021/01/28 12:30:21;;;;;;;7.87;5.57;;;5.90;99.90;;;;;;4958642;29;20498;-46
2021/01/28 12:32:47;;;;;;;7.67;5.20;;;5.90;99.90;;;;;;4958841;29;20526;-47
2021/01/28 12:35:14;;;;;;;6.83;4.87;;;5.90;99.90;;;;;;4954782;29;20444;-48
2021/01/28 12:37:41;;;;;;;7.63;4.67;;;5.90;99.90;;;;;;4958904;29;20452;-49
2021/01/28 12:40:09;;;;;;;8.80;5.33;;;6.00;99.90;;;;;;4959145;29;20526;-49
2021/01/28 12:42:35;;;;;;;9.10;4.77;;;5.90;99.90;;;;;;4958615;29;20450;-47
2021/01/28 12:45:04;;;;;;;5.87;3.80;;;5.90;99.90;;;;;;4959075;29;20455;-51
2021/01/28 12:47:34;;;;;;;7.10;4.33;;;5.80;99.90;;;;;;4959719;29;20463;-49
2021/01/28 12:50:01;;;;;;;8.90;5.37;;;5.90;99.90;;;;;;4967910;29;20538;-52
2021/01/28 12:52:30;;;;;;;6.03;4.20;;;5.80;99.90;;;;;;4963037;28;20466;-49
2021/01/28 12:54:56;;;;;;;8.40;4.47;;;5.80;99.90;;;;;;4964815;28;20451;-48
2021/01/28 12:57:23;;;;;;;9.07;5.43;;;5.80;99.90;;;;;;4971844;28;20503;-48
2021/01/28 12:59:49;;;;;;;5.87;4.10;;;5.80;99.90;;;;;;4967543;28;20451;-47
2021/01/28 13:02:16;;;;;;;6.13;4.30;;;5.80;99.90;;;;;;4978237;28;20420;-49
2021/01/28 13:04:43;;;;;;;6.87;4.13;;;5.80;99.90;;;;;;4966259;29;20779;-47
2021/01/28 13:07:11;;;;;;;6.03;3.60;;;5.80;99.90;;;;;;4961031;29;20444;-49
2021/01/28 13:09:37;;;;;;;4.73;3.13;;;5.80;99.90;;;;;;4969998;29;20502;-53